Time;durP1;ratioP1;P1;durP2;ratioP2;P2;SDS_P1;SDS_P2;PMS_P1;PMS_P2;Temp;Humidity;BMP_temperature;BMP_pressure;BME280_temperature;BME280_humidity;BME280_pressure;Samples;Min_cycle;Max_cycle;Signal;HPM_P1;HPM_P2
2023/10/29 00:02:14;;;;;;;4.15;1.63;;;;;;;;;;5111908;28;20130;-53
2023/10/29 00:04:41;;;;;;;3.10;1.50;;;;;;;;;;5107606;28;20483;-50
2023/10/29 00:07:07;;;;;;;4.25;1.40;;;;;;;;;;5107008;28;20044;-55
2023/10/29 00:09:34;;;;;;;4.15;1.35;;;;;;;;;;5113189;28;20481;-54
2023/10/29 00:12:01;;;;;;;3.28;1.40;;;;;;;;;;5113128;28;20044;-55
2023/10/29 00:14:30;;;;;;;4.80;1.83;;;;;;;;;;5113202;28;20047;-52
2023/10/29 00:16:57;;;;;;;4.40;1.85;;;;;;;;;;5105067;28;20139;-54
2023/10/29 00:19:23;;;;;;;3.78;1.60;;;;;;;;;;5105102;28;20044;-52
2023/10/29 00:21:50;;;;;;;2.78;1.50;;;;;;;;;;5113106;28;20138;-59
2023/10/29 00:24:17;;;;;;;4.35;1.73;;;;;;;;;;5106559;28;20079;-51
2023/10/29 00:26:43;;;;;;;3.53;1.63;;;;;;;;;;5113236;28;20047;-53
2023/10/29 00:29:10;;;;;;;2.95;1.30;;;;;;;;;;5099715;28;20051;-53
2023/10/29 00:31:38;;;;;;;4.38;1.50;;;;;;;;;;5106801;28;20075;-51
2023/10/29 00:34:05;;;;;;;3.03;1.30;;;;;;;;;;5110584;28;20048;-52
2023/10/29 00:36:32;;;;;;;3.03;1.60;;;;;;;;;;5107659;28;20053;-50
2023/10/29 00:38:58;;;;;;;3.28;1.60;;;;;;;;;;5105767;28;20131;-53
2023/10/29 00:41:26;;;;;;;3.50;1.50;;;;;;;;;;5104646;28;20086;-54
2023/10/29 00:43:52;;;;;;;3.53;1.50;;;;;;;;;;5112632;28;20047;-53
2023/10/29 00:46:20;;;;;;;5.20;1.88;;;;;;;;;;5111946;28;20135;-55
2023/10/29 00:48:49;;;;;;;3.33;1.52;;;;;;;;;;5112842;28;20135;-49
2023/10/29 00:51:16;;;;;;;5.43;1.75;;;;;;;;;;5104614;28;20522;-54
2023/10/29 00:53:43;;;;;;;3.28;1.50;;;;;;;;;;5106084;28;20044;-52
2023/10/29 00:56:11;;;;;;;2.95;1.20;;;;;;;;;;5103439;28;20044;-59
2023/10/29 00:58:38;;;;;;;3.50;1.58;;;;;;;;;;5101823;28;20203;-53
2023/10/29 01:01:05;;;;;;;4.18;1.48;;;;;;;;;;5104224;28;20043;-53
2023/10/29 01:03:32;;;;;;;3.95;1.65;;;;;;;;;;5105048;28;20097;-52
2023/10/29 01:06:00;;;;;;;3.13;1.52;;;;;;;;;;5112374;28;20097;-56
2023/10/29 01:08:27;;;;;;;3.33;1.50;;;;;;;;;;5112489;28;20130;-50
2023/10/29 01:10:55;;;;;;;3.63;1.52;;;;;;;;;;5112359;28;20472;-56
2023/10/29 01:13:21;;;;;;;3.10;1.50;;;;;;;;;;5112045;28;20059;-50
2023/10/29 01:15:48;;;;;;;3.28;1.52;;;;;;;;;;5112249;28;20138;-53
2023/10/29 01:18:15;;;;;;;4.50;1.50;;;;;;;;;;5109847;28;20126;-54
2023/10/29 01:20:41;;;;;;;3.13;1.63;;;;;;;;;;5105600;28;20043;-54
2023/10/29 01:23:09;;;;;;;3.38;1.70;;;;;;;;;;5112201;28;20043;-50
2023/10/29 01:25:38;;;;;;;3.58;1.42;;;;;;;;;;5111516;28;20047;-55
2023/10/29 01:28:05;;;;;;;3.80;1.67;;;;;;;;;;5111994;28;20087;-56
2023/10/29 01:30:32;;;;;;;2.60;1.42;;;;;;;;;;5112077;28;20130;-54
2023/10/29 01:32:59;;;;;;;3.13;1.33;;;;;;;;;;5111912;28;20074;-52
2023/10/29 01:35:26;;;;;;;3.45;1.70;;;;;;;;;;5112192;28;20044;-53
2023/10/29 01:37:52;;;;;;;4.68;1.65;;;;;;;;;;5104005;28;20055;-54
2023/10/29 01:40:21;;;;;;;4.80;2.00;;;;;;;;;;5103732;28;20123;-53
2023/10/29 01:42:48;;;;;;;3.25;1.63;;;;;;;;;;5112008;28;20051;-49
2023/10/29 01:45:16;;;;;;;4.10;1.30;;;;;;;;;;5107194;28;20047;-52
2023/10/29 01:47:43;;;;;;;4.10;1.55;;;;;;;;;;5111307;28;20043;-50
2023/10/29 01:50:10;;;;;;;3.17;1.38;;;;;;;;;;5103107;28;20134;-50
2023/10/29 01:52:38;;;;;;;3.67;1.60;;;;;;;;;;5111545;28;20134;-53
2023/10/29 01:55:05;;;;;;;3.95;1.45;;;;;;;;;;5110826;28;20059;-54
2023/10/29 01:57:34;;;;;;;2.50;1.25;;;;;;;;;;5111985;28;20074;-53
2023/10/29 02:00:01;;;;;;;3.08;1.23;;;;;;;;;;5103187;28;20083;-54
2023/10/29 02:02:27;;;;;;;3.83;1.63;;;;;;;;;;5107785;28;20139;-52
2023/10/29 02:04:54;;;;;;;3.47;1.60;;;;;;;;;;5111258;28;20122;-50
2023/10/29 02:07:20;;;;;;;3.30;1.40;;;;;;;;;;5111509;28;20101;-49
2023/10/29 02:09:47;;;;;;;2.47;1.02;;;;;;;;;;5111761;28;20547;-54
2023/10/29 02:12:14;;;;;;;3.10;1.50;;;;;;;;;;5111374;28;20051;-52
2023/10/29 02:14:42;;;;;;;3.88;1.52;;;;;;;;;;5103254;28;20245;-52
2023/10/29 02:17:09;;;;;;;3.58;1.63;;;;;;;;;;5111434;28;20113;-52
2023/10/29 02:19:36;;;;;;;4.10;1.38;;;;;;;;;;5111434;28;20073;-55
2023/10/29 02:22:05;;;;;;;4.45;1.73;;;;;;;;;;5102822;28;20040;-51
2023/10/29 02:24:31;;;;;;;2.78;1.10;;;;;;;;;;5111417;28;20081;-57
2023/10/29 02:26:58;;;;;;;2.53;1.55;;;;;;;;;;5111396;28;20472;-53
2023/10/29 02:29:25;;;;;;;3.20;1.60;;;;;;;;;;5102791;28;20135;-52
2023/10/29 02:31:52;;;;;;;3.42;1.65;;;;;;;;;;5111476;28;20047;-52
2023/10/29 02:34:18;;;;;;;3.38;1.55;;;;;;;;;;5112132;28;20060;-53
2023/10/29 02:36:45;;;;;;;3.47;1.35;;;;;;;;;;5109877;28;20483;-50
2023/10/29 02:39:13;;;;;;;3.03;1.30;;;;;;;;;;5115466;28;20135;-50
2023/10/29 02:41:40;;;;;;;2.63;1.20;;;;;;;;;;5115280;28;20050;-53
2023/10/29 02:44:07;;;;;;;3.22;1.63;;;;;;;;;;5105428;28;20121;-54
2023/10/29 02:46:36;;;;;;;3.90;1.70;;;;;;;;;;5108245;28;20086;-52
2023/10/29 02:49:03;;;;;;;3.22;1.30;;;;;;;;;;5098108;28;20559;-52
2023/10/29 02:51:29;;;;;;;4.00;1.70;;;;;;;;;;5115303;28;20470;-55
2023/10/29 02:53:56;;;;;;;3.20;1.67;;;;;;;;;;5106839;28;20123;-52
2023/10/29 02:56:24;;;;;;;3.22;1.50;;;;;;;;;;5115296;28;20043;-51
2023/10/29 02:58:50;;;;;;;3.15;1.50;;;;;;;;;;5114988;28;20475;-53
2023/10/29 03:01:17;;;;;;;3.08;1.55;;;;;;;;;;5106102;28;20193;-49
2023/10/29 03:03:44;;;;;;;5.13;1.50;;;;;;;;;;5114396;28;20154;-52
2023/10/29 03:06:11;;;;;;;3.00;1.27;;;;;;;;;;5115044;28;20546;-51
2023/10/29 03:08:38;;;;;;;3.13;1.42;;;;;;;;;;5106002;28;20098;-55
2023/10/29 03:11:05;;;;;;;3.40;1.88;;;;;;;;;;5108424;28;20122;-53
2023/10/29 03:13:33;;;;;;;3.70;1.80;;;;;;;;;;5114608;28;20122;-50
2023/10/29 03:16:00;;;;;;;4.70;1.90;;;;;;;;;;5114950;28;20131;-51
2023/10/29 03:18:29;;;;;;;3.05;1.58;;;;;;;;;;5114572;28;20147;-53
2023/10/29 03:20:55;;;;;;;3.28;1.60;;;;;;;;;;5114637;28;20071;-51
2023/10/29 03:23:23;;;;;;;4.53;1.63;;;;;;;;;;5114169;28;20126;-55
2023/10/29 03:25:50;;;;;;;5.15;2.20;;;;;;;;;;5114412;28;20418;-52
2023/10/29 03:28:17;;;;;;;4.40;1.45;;;;;;;;;;5114425;28;20540;-51
2023/10/29 03:30:45;;;;;;;5.80;1.83;;;;;;;;;;5114319;28;20138;-52
2023/10/29 03:33:11;;;;;;;3.67;1.50;;;;;;;;;;5110346;28;20130;-50
2023/10/29 03:35:38;;;;;;;4.50;1.60;;;;;;;;;;5113262;28;20487;-51
2023/10/29 03:38:05;;;;;;;2.92;1.50;;;;;;;;;;5114258;28;20512;-56
2023/10/29 03:40:32;;;;;;;3.00;1.27;;;;;;;;;;5113905;28;20050;-53
2023/10/29 03:42:58;;;;;;;2.50;1.17;;;;;;;;;;5113309;28;20122;-57
2023/10/29 03:45:25;;;;;;;2.65;1.30;;;;;;;;;;5111775;28;20126;-55
2023/10/29 03:47:53;;;;;;;4.00;1.40;;;;;;;;;;5111127;28;20039;-56
2023/10/29 03:50:20;;;;;;;2.88;1.30;;;;;;;;;;5113424;28;20143;-54
2023/10/29 03:52:46;;;;;;;3.10;1.50;;;;;;;;;;5113440;28;20487;-52
2023/10/29 03:55:13;;;;;;;3.30;1.40;;;;;;;;;;5113138;28;20511;-49
2023/10/29 03:57:40;;;;;;;3.53;1.42;;;;;;;;;;5099552;28;20048;-55
2023/10/29 04:00:08;;;;;;;2.53;1.10;;;;;;;;;;5104784;28;20058;-57
2023/10/29 04:02:34;;;;;;;2.53;1.20;;;;;;;;;;5113231;28;20075;-51
2023/10/29 04:05:02;;;;;;;2.92;1.23;;;;;;;;;;5113107;28;20126;-52
2023/10/29 04:07:29;;;;;;;2.28;1.15;;;;;;;;;;5111013;28;20040;-52
2023/10/29 04:09:56;;;;;;;2.25;1.10;;;;;;;;;;5113078;28;20089;-51
2023/10/29 04:12:23;;;;;;;2.47;1.27;;;;;;;;;;5093237;28;20052;-52
2023/10/29 04:14:50;;;;;;;2.88;1.35;;;;;;;;;;5092731;28;20052;-54
2023/10/29 04:17:16;;;;;;;2.95;1.10;;;;;;;;;;5092999;28;20060;-49
2023/10/29 04:19:43;;;;;;;2.90;1.52;;;;;;;;;;5104462;28;20039;-53
2023/10/29 04:22:11;;;;;;;3.63;1.30;;;;;;;;;;5110993;28;20475;-56
2023/10/29 04:24:38;;;;;;;3.38;1.48;;;;;;;;;;5092621;28;20051;-52
2023/10/29 04:27:05;;;;;;;2.50;1.25;;;;;;;;;;5092982;28;20044;-52
2023/10/29 04:29:31;;;;;;;2.58;1.30;;;;;;;;;;5092898;28;20083;-54
2023/10/29 04:31:58;;;;;;;2.42;1.20;;;;;;;;;;5092888;28;20082;-58
2023/10/29 04:34:25;;;;;;;3.40;1.13;;;;;;;;;;5110533;28;20468;-54
2023/10/29 04:36:52;;;;;;;2.47;1.23;;;;;;;;;;5112847;28;20042;-55
2023/10/29 04:39:20;;;;;;;3.28;1.27;;;;;;;;;;5112245;28;20056;-54
2023/10/29 04:41:47;;;;;;;3.05;1.40;;;;;;;;;;5111918;28;20491;-55
2023/10/29 04:44:14;;;;;;;2.38;1.00;;;;;;;;;;5111983;28;20050;-51
2023/10/29 04:46:40;;;;;;;2.10;1.02;;;;;;;;;;5112931;28;20048;-54
2023/10/29 04:49:07;;;;;;;4.03;1.50;;;;;;;;;;5112845;28;20047;-53
2023/10/29 04:51:34;;;;;;;4.40;1.40;;;;;;;;;;5111970;28;20087;-53
2023/10/29 04:54:01;;;;;;;3.40;1.33;;;;;;;;;;5112905;28;20404;-52
2023/10/29 04:56:29;;;;;;;2.85;1.10;;;;;;;;;;5112388;28;20046;-50
2023/10/29 04:58:55;;;;;;;3.03;1.25;;;;;;;;;;5112948;28;20481;-51
2023/10/29 05:01:22;;;;;;;2.58;1.10;;;;;;;;;;5109129;28;20058;-53
2023/10/29 05:03:49;;;;;;;3.22;1.42;;;;;;;;;;5099222;28;20086;-52
2023/10/29 05:06:19;;;;;;;5.10;1.45;;;;;;;;;;5104402;28;20487;-55
2023/10/29 05:08:46;;;;;;;2.75;1.40;;;;;;;;;;5112775;28;20537;-54
2023/10/29 05:11:12;;;;;;;2.75;1.20;;;;;;;;;;5112514;28;20055;-50
2023/10/29 05:13:41;;;;;;;5.10;1.35;;;;;;;;;;5112244;28;20047;-53
2023/10/29 05:16:08;;;;;;;2.80;1.50;;;;;;;;;;5112283;28;20133;-52
2023/10/29 05:18:34;;;;;;;2.85;1.38;;;;;;;;;;5112616;28;20047;-51
2023/10/29 05:21:01;;;;;;;2.83;1.60;;;;;;;;;;5112211;28;20040;-53
2023/10/29 05:23:28;;;;;;;4.63;1.38;;;;;;;;;;5099457;28;20044;-53
2023/10/29 05:25:54;;;;;;;3.85;1.38;;;;;;;;;;5108344;28;20435;-54
2023/10/29 05:28:23;;;;;;;3.03;1.30;;;;;;;;;;5112337;28;20044;-54
2023/10/29 05:30:51;;;;;;;3.30;1.50;;;;;;;;;;5104869;28;20080;-53
2023/10/29 05:33:18;;;;;;;2.85;1.20;;;;;;;;;;5111080;28;20119;-50
2023/10/29 05:35:45;;;;;;;3.60;1.40;;;;;;;;;;5111834;28;20069;-56
2023/10/29 05:38:12;;;;;;;3.63;1.25;;;;;;;;;;5112526;28;20503;-51
2023/10/29 05:40:39;;;;;;;2.88;1.35;;;;;;;;;;5098192;28;20478;-54
2023/10/29 05:43:05;;;;;;;3.00;1.40;;;;;;;;;;5101103;28;20100;-50
2023/10/29 05:45:32;;;;;;;3.42;1.45;;;;;;;;;;5110808;28;20042;-54
2023/10/29 05:48:01;;;;;;;2.10;1.33;;;;;;;;;;5106639;28;20406;-50
2023/10/29 05:50:28;;;;;;;4.97;1.58;;;;;;;;;;5108950;28;20052;-53
2023/10/29 05:52:54;;;;;;;2.70;1.10;;;;;;;;;;5103833;28;20051;-57
2023/10/29 05:55:22;;;;;;;3.03;1.35;;;;;;;;;;5111425;28;20040;-49
2023/10/29 05:57:49;;;;;;;3.35;1.60;;;;;;;;;;5111576;28;20052;-49
2023/10/29 06:00:17;;;;;;;4.22;2.30;;;;;;;;;;5111739;28;20392;-50
2023/10/29 06:02:44;;;;;;;3.08;1.27;;;;;;;;;;5111844;28;20055;-51
2023/10/29 06:05:12;;;;;;;2.72;1.30;;;;;;;;;;5111577;28;20142;-53
2023/10/29 06:07:43;;;;;;;2.88;1.40;;;;;;;;;;5115702;28;20126;-52
2023/10/29 06:10:11;;;;;;;3.22;1.30;;;;;;;;;;5118790;28;20050;-50
2023/10/29 06:12:38;;;;;;;2.90;1.15;;;;;;;;;;5118656;28;20047;-51
2023/10/29 06:15:05;;;;;;;3.05;1.17;;;;;;;;;;5116256;27;20071;-52
2023/10/29 06:17:32;;;;;;;3.85;1.50;;;;;;;;;;5117020;28;20098;-50
2023/10/29 06:19:59;;;;;;;3.17;1.50;;;;;;;;;;5112908;28;20106;-56
2023/10/29 06:22:27;;;;;;;2.80;1.42;;;;;;;;;;5113008;27;20127;-54
2023/10/29 06:24:53;;;;;;;2.25;1.23;;;;;;;;;;5116867;28;20570;-53
2023/10/29 06:27:20;;;;;;;2.42;1.45;;;;;;;;;;5113605;28;20036;-53
2023/10/29 06:29:46;;;;;;;4.45;1.30;;;;;;;;;;5116932;28;20127;-54
2023/10/29 06:32:13;;;;;;;3.65;1.40;;;;;;;;;;5111940;28;20056;-55
2023/10/29 06:34:40;;;;;;;3.85;1.42;;;;;;;;;;5114833;28;20468;-54
2023/10/29 06:37:07;;;;;;;3.92;1.52;;;;;;;;;;5116087;28;20074;-53
2023/10/29 06:39:35;;;;;;;3.33;1.45;;;;;;;;;;5113491;28;20051;-49
2023/10/29 06:42:28;;;;;;;3.60;1.40;;;;;;;;;;5112824;28;20035;-53
2023/10/29 06:44:54;;;;;;;2.65;1.33;;;;;;;;;;5112575;28;20043;-51
2023/10/29 06:47:21;;;;;;;2.50;1.23;;;;;;;;;;5113270;27;20053;-52
2023/10/29 06:49:49;;;;;;;3.22;1.13;;;;;;;;;;5111781;28;20138;-52
2023/10/29 06:52:16;;;;;;;2.05;1.15;;;;;;;;;;5109291;28;20043;-55
2023/10/29 06:54:44;;;;;;;3.15;1.30;;;;;;;;;;5114564;28;20079;-52
2023/10/29 06:57:11;;;;;;;3.40;1.42;;;;;;;;;;5114307;27;20466;-53
2023/10/29 06:59:39;;;;;;;3.78;1.35;;;;;;;;;;5112315;28;20088;-51
2023/10/29 07:02:06;;;;;;;3.35;1.40;;;;;;;;;;5110077;27;20084;-56
2023/10/29 07:04:33;;;;;;;3.65;1.55;;;;;;;;;;5111671;27;20043;-54
2023/10/29 07:07:00;;;;;;;3.83;1.50;;;;;;;;;;5118101;28;20554;-53
2023/10/29 07:09:26;;;;;;;3.53;1.48;;;;;;;;;;5115423;28;20127;-55
2023/10/29 07:11:55;;;;;;;3.67;1.30;;;;;;;;;;5113445;28;20093;-52
2023/10/29 07:14:22;;;;;;;3.33;1.48;;;;;;;;;;5111171;28;20048;-51
2023/10/29 07:16:48;;;;;;;4.70;1.83;;;;;;;;;;5107015;28;20131;-50
2023/10/29 07:19:16;;;;;;;2.45;1.20;;;;;;;;;;5112823;28;20483;-54
2023/10/29 07:21:43;;;;;;;3.03;1.50;;;;;;;;;;5110218;28;20039;-50
2023/10/29 07:24:10;;;;;;;4.13;1.20;;;;;;;;;;5111168;28;20044;-53
2023/10/29 07:26:37;;;;;;;2.45;1.15;;;;;;;;;;5113471;28;20056;-54
2023/10/29 07:29:05;;;;;;;2.97;1.30;;;;;;;;;;5113160;28;20139;-53
2023/10/29 07:31:32;;;;;;;2.85;1.48;;;;;;;;;;5106988;28;20051;-55
2023/10/29 07:33:58;;;;;;;3.50;1.35;;;;;;;;;;5113183;28;20042;-55
2023/10/29 07:36:25;;;;;;;2.75;1.30;;;;;;;;;;5111180;28;20118;-49
2023/10/29 07:38:52;;;;;;;2.90;1.25;;;;;;;;;;5113430;28;20039;-49
2023/10/29 07:41:19;;;;;;;2.47;1.10;;;;;;;;;;5111756;28;20057;-54
2023/10/29 07:43:46;;;;;;;2.80;1.38;;;;;;;;;;5113369;28;20044;-52
2023/10/29 07:46:14;;;;;;;3.10;1.40;;;;;;;;;;5111111;28;20075;-55
2023/10/29 07:48:41;;;;;;;9.32;4.50;;;;;;;;;;5113677;28;20050;-53
2023/10/29 07:51:10;;;;;;;25.00;11.25;;;;;;;;;;5112635;28;20054;-53
2023/10/29 07:53:36;;;;;;;19.92;10.40;;;;;;;;;;5113943;28;20054;-50
2023/10/29 07:56:09;;;;;;;23.17;9.80;;;;;;;;;;5111214;28;20130;-53
2023/10/29 07:58:37;;;;;;;27.95;11.65;;;;;;;;;;5108199;28;20483;-54
2023/10/29 08:01:10;;;;;;;16.75;6.40;;;;;;;;;;5100025;28;20453;-51
2023/10/29 08:03:39;;;;;;;5.85;2.20;;;;;;;;;;5113381;28;20040;-51
2023/10/29 08:06:06;;;;;;;6.15;2.10;;;;;;;;;;5111404;28;20487;-56
2023/10/29 08:08:32;;;;;;;4.47;1.67;;;;;;;;;;5111739;28;20051;-52
2023/10/29 08:10:59;;;;;;;3.00;1.52;;;;;;;;;;5107751;28;20044;-55
2023/10/29 08:13:26;;;;;;;2.75;1.40;;;;;;;;;;5109461;28;20065;-53
2023/10/29 08:15:53;;;;;;;3.95;1.50;;;;;;;;;;5112001;28;20074;-54
2023/10/29 08:18:19;;;;;;;3.47;1.45;;;;;;;;;;5108952;28;20518;-51
2023/10/29 08:20:48;;;;;;;4.25;1.50;;;;;;;;;;5110241;28;20461;-58
2023/10/29 08:23:14;;;;;;;3.90;1.50;;;;;;;;;;5110764;28;20043;-53
2023/10/29 08:25:41;;;;;;;4.60;1.60;;;;;;;;;;5106548;28;20071;-52
2023/10/29 08:28:09;;;;;;;2.90;1.60;;;;;;;;;;5111167;28;20094;-56
2023/10/29 08:30:36;;;;;;;2.83;1.20;;;;;;;;;;5111508;28;20042;-54
2023/10/29 08:33:02;;;;;;;4.13;1.90;;;;;;;;;;5110384;28;20541;-55
2023/10/29 08:35:29;;;;;;;3.95;1.70;;;;;;;;;;5110586;28;20529;-55
2023/10/29 08:37:58;;;;;;;4.28;1.80;;;;;;;;;;5112843;28;20578;-52
2023/10/29 08:40:24;;;;;;;3.13;1.55;;;;;;;;;;5107330;28;20127;-52
2023/10/29 08:42:51;;;;;;;3.78;1.70;;;;;;;;;;5113262;28;20067;-58
2023/10/29 08:45:18;;;;;;;3.50;1.70;;;;;;;;;;5110657;28;20043;-58
2023/10/29 08:47:44;;;;;;;4.22;2.50;;;;;;;;;;5112106;28;20081;-60
2023/10/29 08:50:11;;;;;;;4.90;2.60;;;;;;;;;;5111556;28;20082;-60
2023/10/29 08:52:38;;;;;;;4.07;2.10;;;;;;;;;;5111597;28;20051;-56
2023/10/29 08:55:06;;;;;;;3.40;2.13;;;;;;;;;;5109679;28;20039;-62
2023/10/29 08:57:35;;;;;;;4.20;1.60;;;;;;;;;;5111256;28;20135;-62
2023/10/29 09:00:03;;;;;;;4.22;1.90;;;;;;;;;;5113162;28;20075;-63
2023/10/29 09:02:29;;;;;;;4.35;2.30;;;;;;;;;;5110979;28;20320;-57
2023/10/29 09:04:57;;;;;;;4.90;2.10;;;;;;;;;;5111833;28;20043;-56
2023/10/29 09:07:25;;;;;;;5.65;2.05;;;;;;;;;;5106190;28;20048;-51
2023/10/29 09:09:52;;;;;;;3.78;1.85;;;;;;;;;;5106401;28;20058;-64
2023/10/29 09:12:21;;;;;;;5.05;1.83;;;;;;;;;;5110058;28;20210;-52
2023/10/29 09:14:47;;;;;;;5.30;2.03;;;;;;;;;;5112514;28;20079;-57
2023/10/29 09:17:14;;;;;;;4.13;2.00;;;;;;;;;;5109201;28;20558;-52
2023/10/29 09:19:41;;;;;;;4.30;2.03;;;;;;;;;;5108057;28;20563;-57
2023/10/29 09:22:07;;;;;;;4.93;2.50;;;;;;;;;;5106913;28;20047;-56
2023/10/29 09:24:34;;;;;;;5.13;2.45;;;;;;;;;;5106477;28;20059;-60
2023/10/29 09:27:01;;;;;;;5.25;2.42;;;;;;;;;;5110245;28;20036;-54
2023/10/29 09:29:31;;;;;;;4.30;2.17;;;;;;;;;;5108186;28;20123;-52
2023/10/29 09:31:58;;;;;;;4.63;1.70;;;;;;;;;;5109663;28;20440;-54
2023/10/29 09:34:25;;;;;;;3.45;1.92;;;;;;;;;;5107645;28;20127;-53
2023/10/29 09:36:52;;;;;;;4.07;1.60;;;;;;;;;;5110922;28;20130;-51
2023/10/29 09:39:18;;;;;;;2.65;1.10;;;;;;;;;;5112325;28;20138;-56
2023/10/29 09:41:46;;;;;;;5.40;1.67;;;;;;;;;;5110716;28;20047;-56
2023/10/29 09:44:17;;;;;;;6.97;2.50;;;;;;;;;;5109963;28;20111;-55
2023/10/29 09:46:46;;;;;;;6.70;2.00;;;;;;;;;;5107974;28;20133;-55
2023/10/29 09:49:14;;;;;;;5.63;2.47;;;;;;;;;;5101683;28;20104;-54
2023/10/29 09:51:42;;;;;;;3.58;1.30;;;;;;;;;;5106464;28;20054;-51
2023/10/29 09:54:09;;;;;;;3.03;1.30;;;;;;;;;;5107321;28;20044;-52
2023/10/29 09:56:37;;;;;;;3.67;1.45;;;;;;;;;;5111875;28;20097;-57
2023/10/29 09:59:06;;;;;;;2.92;1.23;;;;;;;;;;5107529;28;20441;-56
2023/10/29 10:01:32;;;;;;;3.50;1.63;;;;;;;;;;5111889;28;20428;-55
2023/10/29 10:04:00;;;;;;;2.97;1.10;;;;;;;;;;5111132;28;20039;-57
2023/10/29 10:06:27;;;;;;;3.72;1.10;;;;;;;;;;5111996;28;20090;-54
2023/10/29 10:08:57;;;;;;;3.80;1.13;;;;;;;;;;5112042;28;20043;-58
2023/10/29 10:11:24;;;;;;;2.63;1.35;;;;;;;;;;5111859;28;20495;-54
2023/10/29 10:13:51;;;;;;;3.80;1.20;;;;;;;;;;5111748;28;20051;-54
2023/10/29 10:16:19;;;;;;;3.50;1.50;;;;;;;;;;5105749;28;20130;-54
2023/10/29 10:18:51;;;;;;;3.45;1.23;;;;;;;;;;5108128;28;20507;-56
2023/10/29 10:21:21;;;;;;;2.47;1.10;;;;;;;;;;5104111;28;20044;-59
2023/10/29 10:23:49;;;;;;;4.87;1.30;;;;;;;;;;5107181;28;20035;-53
2023/10/29 10:26:18;;;;;;;2.22;1.10;;;;;;;;;;5107992;28;20078;-55
2023/10/29 10:28:55;;;;;;;2.35;1.13;;;;;;;;;;5105322;28;20096;-53
2023/10/29 10:31:22;;;;;;;5.05;1.27;;;;;;;;;;5103989;28;20039;-57
2023/10/29 10:33:49;;;;;;;3.45;1.50;;;;;;;;;;5104812;28;20046;-59
2023/10/29 10:36:32;;;;;;;3.22;1.38;;;;;;;;;;5103822;28;20048;-56
2023/10/29 10:38:59;;;;;;;3.35;1.10;;;;;;;;;;5106684;28;20052;-57
2023/10/29 10:41:26;;;;;;;6.38;1.25;;;;;;;;;;5109210;28;20101;-52
2023/10/29 10:44:08;;;;;;;4.05;1.00;;;;;;;;;;5109070;28;20055;-58
2023/10/29 10:46:36;;;;;;;2.63;1.10;;;;;;;;;;5105096;28;20092;-55
2023/10/29 10:49:05;;;;;;;4.32;1.63;;;;;;;;;;5108440;28;20047;-57
2023/10/29 10:51:35;;;;;;;6.30;1.90;;;;;;;;;;5106831;28;20096;-53
2023/10/29 10:54:03;;;;;;;7.57;2.67;;;;;;;;;;5107847;28;20039;-59
2023/10/29 10:56:35;;;;;;;2.47;0.98;;;;;;;;;;5111737;28;20043;-57
2023/10/29 10:59:04;;;;;;;2.60;1.00;;;;;;;;;;5112507;28;20089;-54
2023/10/29 11:01:32;;;;;;;2.73;1.00;;;;;;;;;;5109809;28;20071;-58
2023/10/29 11:04:01;;;;;;;6.32;1.20;;;;;;;;;;5108952;28;20126;-59
2023/10/29 11:06:28;;;;;;;2.75;0.88;;;;;;;;;;5111295;28;20131;-55
2023/10/29 11:08:57;;;;;;;15.15;1.98;;;;;;;;;;5108118;28;20183;-54
2023/10/29 11:11:27;;;;;;;25.85;2.90;;;;;;;;;;5113029;28;20043;-57
2023/10/29 11:14:08;;;;;;;8.77;1.80;;;;;;;;;;5112703;28;20066;-52
2023/10/29 11:16:46;;;;;;;4.68;1.20;;;;;;;;;;5111839;28;20044;-55
2023/10/29 11:19:43;;;;;;;4.07;1.30;;;;;;;;;;5111573;28;20540;-53
2023/10/29 11:22:17;;;;;;;1.75;0.77;;;;;;;;;;5108392;28;20176;-55
2023/10/29 11:25:39;;;;;;;10.75;1.30;;;;;;;;;;5110019;28;20048;-54
2023/10/29 11:28:06;;;;;;;2.83;0.88;;;;;;;;;;5107724;28;20047;-57
2023/10/29 11:30:33;;;;;;;3.63;1.17;;;;;;;;;;5111100;28;20147;-57
2023/10/29 11:33:17;;;;;;;2.65;1.05;;;;;;;;;;5108848;28;20043;-57
2023/10/29 11:35:44;;;;;;;3.63;1.10;;;;;;;;;;5108005;28;20054;-55
2023/10/29 11:38:37;;;;;;;2.42;1.10;;;;;;;;;;5105620;28;20050;-54
2023/10/29 11:41:34;;;;;;;2.85;1.58;;;;;;;;;;5096457;28;20079;-55
2023/10/29 11:44:21;;;;;;;6.18;1.42;;;;;;;;;;5112080;28;20071;-55
2023/10/29 11:47:05;;;;;;;12.65;2.10;;;;;;;;;;5111961;28;20105;-55
2023/10/29 11:49:52;;;;;;;6.70;1.75;;;;;;;;;;5110483;28;20039;-56
2023/10/29 11:52:18;;;;;;;2.78;1.20;;;;;;;;;;5109085;28;20484;-58
2023/10/29 11:54:45;;;;;;;3.72;1.40;;;;;;;;;;5107888;28;20039;-61
2023/10/29 11:57:15;;;;;;;3.20;1.27;;;;;;;;;;5112078;28;20134;-60
2023/10/29 11:59:54;;;;;;;3.63;1.33;;;;;;;;;;5110725;28;20135;-59
2023/10/29 12:02:21;;;;;;;3.50;1.30;;;;;;;;;;5107920;28;20043;-60
2023/10/29 12:04:48;;;;;;;2.00;0.93;;;;;;;;;;5104995;28;20047;-59
2023/10/29 12:07:25;;;;;;;2.83;1.00;;;;;;;;;;5104920;28;20071;-58
2023/10/29 12:10:00;;;;;;;3.20;1.10;;;;;;;;;;5106961;28;20108;-57
2023/10/29 12:12:28;;;;;;;1.75;0.90;;;;;;;;;;5107274;28;20047;-58
2023/10/29 12:14:55;;;;;;;3.17;1.23;;;;;;;;;;5112560;28;20040;-58
2023/10/29 12:17:21;;;;;;;3.15;1.00;;;;;;;;;;5110651;28;20540;-57
2023/10/29 12:19:48;;;;;;;4.63;1.50;;;;;;;;;;5111114;28;20134;-58
2023/10/29 12:22:17;;;;;;;3.60;1.58;;;;;;;;;;5107736;27;20087;-58
2023/10/29 12:24:44;;;;;;;3.20;1.50;;;;;;;;;;5111248;28;20055;-58
2023/10/29 12:27:13;;;;;;;3.47;1.60;;;;;;;;;;5112400;28;20623;-57
2023/10/29 12:29:42;;;;;;;5.15;1.58;;;;;;;;;;5108704;28;20047;-57
2023/10/29 12:32:15;;;;;;;3.05;1.50;;;;;;;;;;5109876;28;20116;-58
2023/10/29 12:34:48;;;;;;;3.53;1.63;;;;;;;;;;5109531;28;20039;-57
2023/10/29 12:37:21;;;;;;;4.60;2.40;;;;;;;;;;5106315;28;20104;-56
2023/10/29 12:39:49;;;;;;;5.07;2.25;;;;;;;;;;5107233;28;20488;-54
2023/10/29 12:42:16;;;;;;;4.05;2.30;;;;;;;;;;5102247;28;20499;-55
2023/10/29 12:44:53;;;;;;;4.78;2.20;;;;;;;;;;5106032;28;20570;-56
2023/10/29 12:47:20;;;;;;;4.53;2.30;;;;;;;;;;5107250;28;20048;-55
2023/10/29 12:49:57;;;;;;;4.38;2.10;;;;;;;;;;5112252;28;20135;-55
2023/10/29 12:52:24;;;;;;;5.32;2.28;;;;;;;;;;5108687;28;20086;-54
2023/10/29 12:54:51;;;;;;;3.83;2.10;;;;;;;;;;5106181;28;20039;-55
2023/10/29 12:57:22;;;;;;;3.40;1.80;;;;;;;;;;5110957;28;20050;-51
2023/10/29 12:59:49;;;;;;;7.88;3.03;;;;;;;;;;5110176;28;20071;-54
2023/10/29 13:02:26;;;;;;;11.82;4.72;;;;;;;;;;5105369;28;20122;-54
2023/10/29 13:04:53;;;;;;;3.85;2.08;;;;;;;;;;5108291;28;20078;-55
2023/10/29 13:07:21;;;;;;;7.88;3.35;;;;;;;;;;5105211;28;20079;-55
2023/10/29 13:09:51;;;;;;;7.00;2.70;;;;;;;;;;5108871;28;20036;-55
2023/10/29 13:12:17;;;;;;;4.63;2.65;;;;;;;;;;5107978;28;20069;-54
2023/10/29 13:14:46;;;;;;;4.20;1.90;;;;;;;;;;5108631;28;20474;-54
2023/10/29 13:17:15;;;;;;;3.83;2.00;;;;;;;;;;5107376;28;20123;-55
2023/10/29 13:19:43;;;;;;;3.58;1.50;;;;;;;;;;5111429;28;20111;-52
2023/10/29 13:22:11;;;;;;;5.13;1.60;;;;;;;;;;5107479;28;20403;-54
2023/10/29 13:24:37;;;;;;;4.20;1.80;;;;;;;;;;5107350;28;20092;-54
2023/10/29 13:27:06;;;;;;;3.95;1.80;;;;;;;;;;5103543;28;20127;-55
2023/10/29 13:29:39;;;;;;;4.40;1.85;;;;;;;;;;5110374;28;20055;-54
2023/10/29 13:32:07;;;;;;;3.00;1.65;;;;;;;;;;5104684;28;20155;-55
2023/10/29 13:34:34;;;;;;;3.00;1.52;;;;;;;;;;5104909;28;20630;-55
2023/10/29 13:37:02;;;;;;;2.42;1.50;;;;;;;;;;5105480;28;20588;-55
2023/10/29 13:39:28;;;;;;;4.55;2.08;;;;;;;;;;5108904;28;20075;-56
2023/10/29 13:41:55;;;;;;;3.35;1.45;;;;;;;;;;5108789;28;20048;-55
2023/10/29 13:44:23;;;;;;;3.22;1.70;;;;;;;;;;5107879;28;20044;-55
2023/10/29 13:46:49;;;;;;;3.08;1.60;;;;;;;;;;5102400;28;22162;-62
2023/10/29 13:49:16;;;;;;;6.38;2.15;;;;;;;;;;5109648;28;20048;-60
2023/10/29 13:51:45;;;;;;;4.40;1.75;;;;;;;;;;5111213;28;20127;-59
2023/10/29 13:54:13;;;;;;;4.50;2.00;;;;;;;;;;5111887;28;20047;-58
2023/10/29 13:56:40;;;;;;;4.47;1.75;;;;;;;;;;5112874;28;20044;-59
2023/10/29 13:59:06;;;;;;;3.97;1.88;;;;;;;;;;5112577;28;20116;-59
2023/10/29 14:01:33;;;;;;;3.83;2.22;;;;;;;;;;5112481;28;20130;-59
2023/10/29 14:04:01;;;;;;;4.47;1.80;;;;;;;;;;5112385;28;20043;-59
2023/10/29 14:06:29;;;;;;;3.28;1.73;;;;;;;;;;5112513;28;20090;-56
2023/10/29 14:08:58;;;;;;;4.22;1.80;;;;;;;;;;5112109;28;20054;-59
2023/10/29 14:11:28;;;;;;;4.25;2.05;;;;;;;;;;5112397;28;20066;-58
2023/10/29 14:13:56;;;;;;;6.47;2.88;;;;;;;;;;5112251;28;20055;-57
2023/10/29 14:16:35;;;;;;;3.97;1.92;;;;;;;;;;5112383;28;20044;-58
2023/10/29 14:19:02;;;;;;;4.47;2.05;;;;;;;;;;5112467;28;20055;-57
2023/10/29 14:21:28;;;;;;;4.38;2.17;;;;;;;;;;5112137;28;20044;-57
2023/10/29 14:23:56;;;;;;;5.35;1.75;;;;;;;;;;5111731;28;20135;-59
2023/10/29 14:26:23;;;;;;;4.60;1.85;;;;;;;;;;5112300;28;20384;-56
2023/10/29 14:28:51;;;;;;;4.60;1.92;;;;;;;;;;5127215;27;20051;-59
2023/10/29 14:31:17;;;;;;;3.35;1.67;;;;;;;;;;5116455;28;20542;-59
2023/10/29 14:33:44;;;;;;;3.75;2.03;;;;;;;;;;5116356;28;20456;-59
2023/10/29 14:36:11;;;;;;;3.45;1.52;;;;;;;;;;5116141;28;20051;-56
2023/10/29 14:38:38;;;;;;;4.28;1.85;;;;;;;;;;5116431;28;20044;-55
2023/10/29 14:41:05;;;;;;;3.55;1.80;;;;;;;;;;5116522;28;20147;-56
2023/10/29 14:43:32;;;;;;;3.47;1.95;;;;;;;;;;5116544;28;20092;-55
2023/10/29 14:46:04;;;;;;;4.57;1.90;;;;;;;;;;5115894;28;20104;-58
2023/10/29 14:48:30;;;;;;;5.63;2.33;;;;;;;;;;5116379;28;20048;-56
2023/10/29 14:50:59;;;;;;;7.75;2.65;;;;;;;;;;5111183;28;20507;-56